• Join FlightAware (Why Join?)
  • Login
  • US Flag 
Gobble Gobble! 
05:52AM EST


 

Airport Tracker/Info


-or-


 

Live Flight TrackerFlight Track Log ✈ KNZ610 ✈ 09-May-2013 ✈ KBTR - KSHV

Flight Track Log - Related Links

Times and Time Zones

All times are in EDT time to prevent confusion due to time zone crossing. See the KNZ610 flight status page for this flight to view local times or setup timezone preferences in your user account.

Time Position Orientation Groundspeed Altitude Reporting Facility
EDT Latitude Longitude Course Direction KTS MPH feet Rate Location/Type
03:12PM 30.4403 -91.1517 311° West 171 197 4,200  Level Houston Center
03:13PM 30.4625 -91.2036 296° West 170 196 5,500 1,320 Climbing Houston Center
03:14PM 30.5028 -91.2447 319° Northwest 186 214 7,000 1,260 Climbing Houston Center
03:15PM 30.5408 -91.2850 318° Northwest 186 214 8,200 1,260 Climbing Houston Center
03:16PM 30.5881 -91.3350 318° Northwest 192 221 9,700 1,320 Climbing Houston Center
03:17PM 30.7887 -91.4072 311° West  Level FlightAware Approximate
03:17PM 30.6289 -91.3797 317° Northwest 200 230 11,000  Level Houston Center
03:18PM 30.6656 -91.4300 310° West 192 221 12,400 1,200 Climbing Houston Center
03:19PM 30.7022 -91.4761 313° West 192 221 13,500 960 Climbing Houston Center
03:20PM 30.7369 -91.5231 311° West 193 222 14,500 720 Climbing Houston Center
03:21PM 30.7758 -91.5722 313° West 207 238 15,000 480 Climbing Houston Center
03:22PM 30.8150 -91.6258 310° West 216 249 15,500 480 Climbing Houston Center
03:23PM 30.8578 -91.6803 312° West 226 260 16,000 240 Climbing Houston Center
03:24PM 30.9103 -91.7486 312° West 238 274 16,000  Level Houston Center
03:25PM 30.9561 -91.8075 312° West 244 281 16,000  Level Houston Center
03:26PM 31.0006 -91.8681 311° West 246 283 16,000  Level Houston Center
03:27PM 31.0461 -91.9269 312° West 245 282 16,000  Level Houston Center
03:28PM 31.0906 -91.9869 311° West 247 284 16,000  Level Houston Center
03:29PM 31.1444 -92.0567 312° West 240 276 16,000  Level Houston Center
03:30PM 31.1886 -92.1169 311° West 243 280 16,000  Level Houston Center
03:31PM 31.2342 -92.1767 312° West 246 283 16,000  Level Houston Center
03:32PM 31.2792 -92.2358 312° West 246 283 16,000  Level Houston Center
03:33PM 31.3242 -92.2953 312° West 246 283 16,000  Level Houston Center
03:34PM 31.3781 -92.3678 311° West 248 285 16,000  Level Houston Center
03:35PM 31.4231 -92.4275 311° West 248 285 16,000  Level Houston Center
03:37PM 31.4689 -92.4878 312° West 250 288 16,000  Level Houston Center
03:38PM 31.5131 -92.5489 310° West 249 287 16,000  Level Houston Center
03:39PM 31.5678 -92.6222 311° West 250 288 16,000  Level Houston Center
03:40PM 31.6117 -92.6817 311° West 245 282 16,000  Level Houston Center
03:41PM 31.6572 -92.7428 311° West 249 287 16,000  Level Houston Center
03:42PM 31.7033 -92.8050 311° West 251 289 16,000  Level Houston Center
03:43PM 31.7486 -92.8656 311° West 250 288 16,000  Level Houston Center
03:44PM 31.7944 -92.9286 311° West 251 289 16,000 -60 Level Houston Center
03:45PM 31.8494 -93.0033 311° West 254 292 15,900 -540 Descending Houston Center
03:46PM 31.8969 -93.0686 311° West 262 302 14,900 -1,020 Descending Houston Center
03:47PM 31.9381 -93.1269 310° West 255 293 14,000 -1,140 Descending Fort Worth Center
03:47PM 31.9644 -93.1675 307° West 275 316 13,400 -840 Descending Fort Worth Center
03:48PM 31.9906 -93.2006 313° West 267 307 13,200 -420 Descending Fort Worth Center
03:48PM 32.0144 -93.2314 312° West 260 299 13,000 -240 Descending Fort Worth Center
03:49PM 32.0322 -93.2575 309° West 267 307 13,000 -120 Level Fort Worth Center
03:49PM 32.0628 -93.2978 312° West 246 283 12,900 -420 Descending Fort Worth Center
03:50PM 32.0842 -93.3211 317° Northwest 257 296 12,600 -1,140 Descending Fort Worth Center
03:50PM 32.1144 -93.3517 319° Northwest 260 299 11,800 -1,440 Descending Fort Worth Center
03:51PM 32.1403 -93.3750 323° Northwest 252 290 11,200 -1,500 Descending Fort Worth Center
03:51PM 32.1789 -93.4103 322° Northwest 258 297 10,200 -1,440 Descending Fort Worth Center
03:52PM 32.1961 -93.4242 326° Northwest 252 290 9,800 -1,320 Descending Fort Worth Center
03:52PM 32.2328 -93.4619 319° Northwest 244 281 8,900 -1,200 Descending Fort Worth Center
03:53PM 32.2500 -93.4733 331° Northwest 252 290 8,600 -780 Descending Fort Worth Center
03:53PM 32.2842 -93.5064 321° Northwest 241 277 8,200 -720 Descending Fort Worth Center
03:54PM 32.3036 -93.5203 329° Northwest 247 284 7,900 -1,020 Descending Fort Worth Center
03:54PM 32.3294 -93.5486 317° Northwest 235 270 7,300 -1,020 Descending Fort Worth Center
03:55PM 32.3511 -93.5697 321° Northwest 241 277 6,900 -780 Descending Fort Worth Center
03:55PM 32.3856 -93.6103 315° West 232 267 6,400 -720 Descending Fort Worth Center
03:56PM 32.4006 -93.6219 327° Northwest 228 262 6,200 -300 Descending Fort Worth Center
03:57PM 32.4353 -93.6622 316° Northwest 230 265 6,100 -60 Descending Fort Worth Center
03:58PM 32.4847 -93.7144 318° Northwest 227 261 6,100 -480 Level Fort Worth Center
03:58PM 32.5214 -93.7522 319° Northwest 207 238 5,200 -1,020 Descending Fort Worth Center
03:59PM 32.5383 -93.7664 325° Northwest 218 251 4,900 -1,200 Descending Fort Worth Center
03:59PM 32.5622 -93.7950 315° West 189 217 4,000 -1,200 Descending Fort Worth Center
04:00PM 32.5708 -93.8044 317° Northwest 202 232 3,700 -1,680 Descending Fort Worth Center
04:00PM 32.5764 -93.8486 279° West 180 207 2,500 -1,620 Descending Fort Worth Center
04:01PM 32.5789 -93.8683 279° West 173 199 2,100 -540 Descending Fort Worth Center
04:01PM 32.5606 -93.8864 220° Southwest 143 165 2,000 -180 Descending Fort Worth Center
04:02PM 32.5253 -93.8875 182° South 126 145 1,900 -360 Descending Fort Worth Center
04:03PM 32.4892 -93.8694 157° South 136 157 1,300 -660 Descending Fort Worth Center
04:04PM 32.4614 -93.8458 144° Southeast 121 139 500 -720 Descending Fort Worth Center
04:06PM 32.4466 -93.8256 100° East  Level Estimated
04:13PM 32.4466 -93.8256 270° West  Level Estimated